sensor_id;sensor_type;location;lat;lon;timestamp;pressure;altitude;pressure_sealevel;temperature;humidity
43420;BME280;29017;51.514;-0.178;2023-03-26T00:05:44;99900.25;;;12.44;83.26
43420;BME280;29017;51.514;-0.178;2023-03-26T00:08:14;99900.63;;;12.41;83.28
43420;BME280;29017;51.514;-0.178;2023-03-26T00:10:42;99889.44;;;12.39;82.95
43420;BME280;29017;51.514;-0.178;2023-03-26T00:13:10;99893.28;;;12.37;83.63
43420;BME280;29017;51.514;-0.178;2023-03-26T00:15:37;99880.91;;;12.37;84.51
43420;BME280;29017;51.514;-0.178;2023-03-26T00:18:04;99871.38;;;12.36;84.79
43420;BME280;29017;51.514;-0.178;2023-03-26T00:20:31;99867.56;;;12.39;84.98
43420;BME280;29017;51.514;-0.178;2023-03-26T00:22:59;99868.34;;;12.39;84.94
43420;BME280;29017;51.514;-0.178;2023-03-26T00:25:27;99860.44;;;12.39;84.16
43420;BME280;29017;51.514;-0.178;2023-03-26T00:27:54;99857.00;;;12.39;84.20
43420;BME280;29017;51.514;-0.178;2023-03-26T00:30:21;99857.00;;;12.39;84.75
43420;BME280;29017;51.514;-0.178;2023-03-26T00:32:48;99855.97;;;12.40;85.39
43420;BME280;29017;51.514;-0.178;2023-03-26T00:35:19;99853.16;;;12.41;85.33
43420;BME280;29017;51.514;-0.178;2023-03-26T00:37:46;99839.31;;;12.39;84.98
43420;BME280;29017;51.514;-0.178;2023-03-26T00:40:13;99840.78;;;12.42;84.86
43420;BME280;29017;51.514;-0.178;2023-03-26T00:42:40;99833.69;;;12.42;84.76
43420;BME280;29017;51.514;-0.178;2023-03-26T00:45:08;99834.50;;;12.43;85.44
43420;BME280;29017;51.514;-0.178;2023-03-26T00:47:35;99837.31;;;12.41;84.95
43420;BME280;29017;51.514;-0.178;2023-03-26T00:50:02;99831.06;;;12.42;85.46
43420;BME280;29017;51.514;-0.178;2023-03-26T00:52:31;99822.69;;;12.39;85.23
43420;BME280;29017;51.514;-0.178;2023-03-26T00:54:58;99822.50;;;12.40;85.39
43420;BME280;29017;51.514;-0.178;2023-03-26T00:57:25;99822.69;;;12.39;85.37
43420;BME280;29017;51.514;-0.178;2023-03-26T01:02:34;99816.78;;;12.37;84.43
43420;BME280;29017;51.514;-0.178;2023-03-26T01:05:25;99810.88;;;12.35;84.30
43420;BME280;29017;51.514;-0.178;2023-03-26T01:07:51;99802.97;;;12.35;84.30
43420;BME280;29017;51.514;-0.178;2023-03-26T01:10:18;99802.78;;;12.36;84.18
43420;BME280;29017;51.514;-0.178;2023-03-26T01:12:48;99788.78;;;12.36;84.26
43420;BME280;29017;51.514;-0.178;2023-03-26T01:15:15;99789.78;;;12.35;85.22
43420;BME280;29017;51.514;-0.178;2023-03-26T01:17:43;99782.50;;;12.37;85.38
43420;BME280;29017;51.514;-0.178;2023-03-26T01:22:40;99762.38;;;12.36;84.73
43420;BME280;29017;51.514;-0.178;2023-03-26T01:25:09;99752.84;;;12.35;84.36
43420;BME280;29017;51.514;-0.178;2023-03-26T01:40:08;99729.44;;;12.25;84.51
43420;BME280;29017;51.514;-0.178;2023-03-26T01:42:40;99732.06;;;12.25;84.82
43420;BME280;29017;51.514;-0.178;2023-03-26T01:45:12;99725.16;;;12.24;84.66
43420;BME280;29017;51.514;-0.178;2023-03-26T01:47:41;99722.53;;;12.24;84.84
43420;BME280;29017;51.514;-0.178;2023-03-26T01:50:10;99727.38;;;12.21;84.28
43420;BME280;29017;51.514;-0.178;2023-03-26T01:52:37;99717.63;;;12.21;84.70
43420;BME280;29017;51.514;-0.178;2023-03-26T01:55:04;99719.09;;;12.24;85.25
43420;BME280;29017;51.514;-0.178;2023-03-26T01:57:34;99716.25;;;12.25;85.59
43420;BME280;29017;51.514;-0.178;2023-03-26T02:10:09;99684.34;;;12.20;85.98
43420;BME280;29017;51.514;-0.178;2023-03-26T02:12:39;99680.09;;;12.19;85.25
43420;BME280;29017;51.514;-0.178;2023-03-26T02:15:07;99684.56;;;12.19;84.63
43420;BME280;29017;51.514;-0.178;2023-03-26T02:17:35;99682.13;;;12.17;83.73
43420;BME280;29017;51.514;-0.178;2023-03-26T02:20:06;99680.31;;;12.18;84.06
43420;BME280;29017;51.514;-0.178;2023-03-26T02:22:36;99675.22;;;12.16;84.41
43420;BME280;29017;51.514;-0.178;2023-03-26T02:25:08;99670.94;;;12.15;84.19
43420;BME280;29017;51.514;-0.178;2023-03-26T02:27:36;99665.06;;;12.13;84.18
43420;BME280;29017;51.514;-0.178;2023-03-26T02:30:04;99662.84;;;12.17;83.90
43420;BME280;29017;51.514;-0.178;2023-03-26T02:32:32;99659.81;;;12.20;83.96
43420;BME280;29017;51.514;-0.178;2023-03-26T02:34:59;99660.44;;;12.22;84.72
43420;BME280;29017;51.514;-0.178;2023-03-26T02:37:26;99659.44;;;12.23;84.53
43420;BME280;29017;51.514;-0.178;2023-03-26T02:39:53;99648.25;;;12.21;84.00
43420;BME280;29017;51.514;-0.178;2023-03-26T02:42:20;99647.44;;;12.20;84.33
43420;BME280;29017;51.514;-0.178;2023-03-26T02:44:47;99653.53;;;12.21;84.66
43420;BME280;29017;51.514;-0.178;2023-03-26T02:47:15;99649.25;;;12.20;85.81
43420;BME280;29017;51.514;-0.178;2023-03-26T02:49:42;99651.28;;;12.18;86.44
43420;BME280;29017;51.514;-0.178;2023-03-26T02:52:09;99644.78;;;12.14;86.25
43420;BME280;29017;51.514;-0.178;2023-03-26T02:54:36;99637.41;;;12.09;86.49
43420;BME280;29017;51.514;-0.178;2023-03-26T02:57:04;99637.00;;;12.06;87.15
43420;BME280;29017;51.514;-0.178;2023-03-26T02:59:31;99640.03;;;12.03;88.26
43420;BME280;29017;51.514;-0.178;2023-03-26T03:01:58;99623.97;;;11.97;89.17
43420;BME280;29017;51.514;-0.178;2023-03-26T03:04:25;99624.34;;;11.94;89.79
43420;BME280;29017;51.514;-0.178;2023-03-26T03:06:52;99620.63;;;11.89;90.68
43420;BME280;29017;51.514;-0.178;2023-03-26T03:09:23;99616.75;;;11.85;90.75
43420;BME280;29017;51.514;-0.178;2023-03-26T03:11:51;99611.69;;;11.83;92.13
43420;BME280;29017;51.514;-0.178;2023-03-26T03:14:18;99609.63;;;11.79;92.17
43420;BME280;29017;51.514;-0.178;2023-03-26T03:16:46;99611.81;;;11.75;92.76
43420;BME280;29017;51.514;-0.178;2023-03-26T03:19:13;99602.50;;;11.73;93.38
43420;BME280;29017;51.514;-0.178;2023-03-26T03:21:40;99602.41;;;11.66;92.39
43420;BME280;29017;51.514;-0.178;2023-03-26T03:24:08;99606.41;;;11.62;92.37
43420;BME280;29017;51.514;-0.178;2023-03-26T03:26:35;99607.41;;;11.61;93.34
43420;BME280;29017;51.514;-0.178;2023-03-26T03:29:03;99598.69;;;11.61;93.48
43420;BME280;29017;51.514;-0.178;2023-03-26T03:31:30;99595.63;;;11.57;92.98
43420;BME280;29017;51.514;-0.178;2023-03-26T03:33:57;99591.72;;;11.53;92.61
43420;BME280;29017;51.514;-0.178;2023-03-26T03:36:24;99590.31;;;11.50;93.17
43420;BME280;29017;51.514;-0.178;2023-03-26T03:38:53;99595.97;;;11.47;93.39
43420;BME280;29017;51.514;-0.178;2023-03-26T03:41:20;99588.59;;;11.43;93.45
43420;BME280;29017;51.514;-0.178;2023-03-26T03:43:48;99590.63;;;11.41;94.21
43420;BME280;29017;51.514;-0.178;2023-03-26T03:46:15;99590.63;;;11.41;94.58
43420;BME280;29017;51.514;-0.178;2023-03-26T03:48:42;99587.56;;;11.37;94.44
43420;BME280;29017;51.514;-0.178;2023-03-26T03:51:15;99594.66;;;11.37;94.19
43420;BME280;29017;51.514;-0.178;2023-03-26T03:53:43;99589.56;;;11.35;94.43
43420;BME280;29017;51.514;-0.178;2023-03-26T03:56:12;99584.47;;;11.34;94.59
43420;BME280;29017;51.514;-0.178;2023-03-26T03:58:40;99580.66;;;11.36;95.72
43420;BME280;29017;51.514;-0.178;2023-03-26T04:01:07;99582.84;;;11.33;95.26
43420;BME280;29017;51.514;-0.178;2023-03-26T04:03:35;99579.16;;;11.27;95.09
43420;BME280;29017;51.514;-0.178;2023-03-26T04:06:05;99575.88;;;11.25;94.62
43420;BME280;29017;51.514;-0.178;2023-03-26T04:08:33;99584.63;;;11.26;95.36
43420;BME280;29017;51.514;-0.178;2023-03-26T04:11:00;99574.25;;;11.24;95.85
43420;BME280;29017;51.514;-0.178;2023-03-26T04:13:27;99571.63;;;11.24;96.10
43420;BME280;29017;51.514;-0.178;2023-03-26T04:15:55;99567.19;;;11.25;95.89
43420;BME280;29017;51.514;-0.178;2023-03-26T04:18:22;99569.16;;;11.23;95.39
43420;BME280;29017;51.514;-0.178;2023-03-26T04:20:49;99570.63;;;11.25;95.88
43420;BME280;29017;51.514;-0.178;2023-03-26T04:23:17;99569.63;;;11.26;95.62
43420;BME280;29017;51.514;-0.178;2023-03-26T04:25:45;99567.25;;;11.31;96.90
43420;BME280;29017;51.514;-0.178;2023-03-26T04:28:18;99566.25;;;11.32;97.36
43420;BME280;29017;51.514;-0.178;2023-03-26T04:30:48;99569.88;;;11.31;96.43
43420;BME280;29017;51.514;-0.178;2023-03-26T04:33:19;99562.16;;;11.30;95.82
43420;BME280;29017;51.514;-0.178;2023-03-26T04:35:46;99559.53;;;11.30;95.95
43420;BME280;29017;51.514;-0.178;2023-03-26T04:38:14;99552.25;;;11.32;96.47
43420;BME280;29017;51.514;-0.178;2023-03-26T04:40:44;99550.81;;;11.29;95.85
43420;BME280;29017;51.514;-0.178;2023-03-26T04:43:17;99559.91;;;11.27;94.83
43420;BME280;29017;51.514;-0.178;2023-03-26T04:45:44;99557.63;;;11.24;94.19
43420;BME280;29017;51.514;-0.178;2023-03-26T04:48:13;99551.75;;;11.22;94.59
43420;BME280;29017;51.514;-0.178;2023-03-26T04:50:41;99561.03;;;11.18;94.38
43420;BME280;29017;51.514;-0.178;2023-03-26T04:53:10;99564.22;;;11.13;93.42
43420;BME280;29017;51.514;-0.178;2023-03-26T04:55:42;99567.66;;;11.13;92.80
43420;BME280;29017;51.514;-0.178;2023-03-26T04:58:10;99567.06;;;11.11;93.15
43420;BME280;29017;51.514;-0.178;2023-03-26T05:00:40;99566.16;;;11.04;92.61
43420;BME280;29017;51.514;-0.178;2023-03-26T05:03:09;99570.00;;;11.02;92.47
43420;BME280;29017;51.514;-0.178;2023-03-26T05:05:36;99563.84;;;10.95;90.98
43420;BME280;29017;51.514;-0.178;2023-03-26T05:08:04;99571.91;;;10.93;90.03
43420;BME280;29017;51.514;-0.178;2023-03-26T05:10:31;99570.03;;;10.87;90.33
43420;BME280;29017;51.514;-0.178;2023-03-26T05:12:59;99577.66;;;10.82;90.30
43420;BME280;29017;51.514;-0.178;2023-03-26T05:15:27;99571.13;;;10.78;90.50
43420;BME280;29017;51.514;-0.178;2023-03-26T05:17:54;99576.97;;;10.73;90.21
43420;BME280;29017;51.514;-0.178;2023-03-26T05:20:23;99577.78;;;10.74;90.93
43420;BME280;29017;51.514;-0.178;2023-03-26T05:22:52;99581.78;;;10.70;91.20
43420;BME280;29017;51.514;-0.178;2023-03-26T05:25:19;99583.34;;;10.64;90.91
43420;BME280;29017;51.514;-0.178;2023-03-26T05:27:47;99585.69;;;10.59;90.79
43420;BME280;29017;51.514;-0.178;2023-03-26T05:30:15;99585.88;;;10.58;91.56
43420;BME280;29017;51.514;-0.178;2023-03-26T05:32:43;99582.63;;;10.56;91.39
43420;BME280;29017;51.514;-0.178;2023-03-26T05:35:10;99591.69;;;10.53;91.73
43420;BME280;29017;51.514;-0.178;2023-03-26T05:37:39;99594.13;;;10.55;92.54
43420;BME280;29017;51.514;-0.178;2023-03-26T05:40:07;99592.69;;;10.52;92.67
43420;BME280;29017;51.514;-0.178;2023-03-26T05:42:37;99594.31;;;10.53;92.67
43420;BME280;29017;51.514;-0.178;2023-03-26T05:45:06;99594.44;;;10.45;91.67
43420;BME280;29017;51.514;-0.178;2023-03-26T05:47:33;99593.22;;;10.48;92.10
43420;BME280;29017;51.514;-0.178;2023-03-26T05:50:00;99589.44;;;10.50;92.85
43420;BME280;29017;51.514;-0.178;2023-03-26T05:52:27;99583.97;;;10.52;92.59
43420;BME280;29017;51.514;-0.178;2023-03-26T05:54:55;99582.81;;;10.54;92.65
43420;BME280;29017;51.514;-0.178;2023-03-26T05:57:22;99579.19;;;10.55;92.97
43420;BME280;29017;51.514;-0.178;2023-03-26T05:59:49;99580.00;;;10.56;92.78
43420;BME280;29017;51.514;-0.178;2023-03-26T06:02:17;99583.63;;;10.55;92.45
43420;BME280;29017;51.514;-0.178;2023-03-26T06:04:48;99585.59;;;10.53;92.70
43420;BME280;29017;51.514;-0.178;2023-03-26T06:07:17;99586.59;;;10.52;92.69
43420;BME280;29017;51.514;-0.178;2023-03-26T06:09:44;99590.06;;;10.52;92.57
43420;BME280;29017;51.514;-0.178;2023-03-26T06:12:12;99579.75;;;10.51;93.23
43420;BME280;29017;51.514;-0.178;2023-03-26T06:14:39;99580.72;;;10.50;92.94
43420;BME280;29017;51.514;-0.178;2023-03-26T06:17:08;99572.66;;;10.51;93.83
43420;BME280;29017;51.514;-0.178;2023-03-26T06:19:36;99584.63;;;10.54;94.72
43420;BME280;29017;51.514;-0.178;2023-03-26T06:22:04;99579.53;;;10.52;93.75
43420;BME280;29017;51.514;-0.178;2023-03-26T06:24:31;99585.59;;;10.53;93.54
43420;BME280;29017;51.514;-0.178;2023-03-26T06:26:59;99582.97;;;10.53;93.78
43420;BME280;29017;51.514;-0.178;2023-03-26T06:29:26;99585.59;;;10.53;94.43
43420;BME280;29017;51.514;-0.178;2023-03-26T06:31:53;99592.69;;;10.52;94.33
43420;BME280;29017;51.514;-0.178;2023-03-26T06:34:23;99604.03;;;10.53;94.45
43420;BME280;29017;51.514;-0.178;2023-03-26T06:36:50;99599.97;;;10.50;94.17
43420;BME280;29017;51.514;-0.178;2023-03-26T06:39:18;99600.31;;;10.47;93.41
43420;BME280;29017;51.514;-0.178;2023-03-26T06:41:46;99609.22;;;10.46;93.74
43420;BME280;29017;51.514;-0.178;2023-03-26T06:44:13;99617.72;;;10.48;93.99
43420;BME280;29017;51.514;-0.178;2023-03-26T06:46:40;99620.19;;;10.50;94.54
43420;BME280;29017;51.514;-0.178;2023-03-26T06:49:08;99618.97;;;10.52;94.70
43420;BME280;29017;51.514;-0.178;2023-03-26T06:51:35;99624.63;;;10.49;94.17
43420;BME280;29017;51.514;-0.178;2023-03-26T06:54:04;99626.31;;;10.42;93.68
43420;BME280;29017;51.514;-0.178;2023-03-26T06:56:32;99628.97;;;10.42;93.67
43420;BME280;29017;51.514;-0.178;2023-03-26T06:58:59;99638.31;;;10.45;93.80
43420;BME280;29017;51.514;-0.178;2023-03-26T07:01:27;99650.81;;;10.43;93.67
43420;BME280;29017;51.514;-0.178;2023-03-26T07:03:54;99646.91;;;10.39;93.31
43420;BME280;29017;51.514;-0.178;2023-03-26T07:06:25;99658.25;;;10.39;92.59
43420;BME280;29017;51.514;-0.178;2023-03-26T07:08:53;99663.69;;;10.38;92.69
43420;BME280;29017;51.514;-0.178;2023-03-26T07:11:23;99668.78;;;10.39;93.03
43420;BME280;29017;51.514;-0.178;2023-03-26T07:13:52;99674.84;;;10.40;92.38
43420;BME280;29017;51.514;-0.178;2023-03-26T07:16:22;99688.34;;;10.37;91.64
43420;BME280;29017;51.514;-0.178;2023-03-26T07:18:52;99690.50;;;10.33;91.33
43420;BME280;29017;51.514;-0.178;2023-03-26T07:21:21;99692.50;;;10.31;92.07
43420;BME280;29017;51.514;-0.178;2023-03-26T07:23:54;99693.53;;;10.30;92.41
43420;BME280;29017;51.514;-0.178;2023-03-26T07:28:57;99706.66;;;10.30;92.16
43420;BME280;29017;51.514;-0.178;2023-03-26T07:36:38;99704.19;;;10.28;92.33
43420;BME280;29017;51.514;-0.178;2023-03-26T07:41:44;99710.28;;;10.29;92.87
43420;BME280;29017;51.514;-0.178;2023-03-26T07:46:49;99715.09;;;10.25;92.05
43420;BME280;29017;51.514;-0.178;2023-03-26T07:49:24;99718.88;;;10.23;92.27
43420;BME280;29017;51.514;-0.178;2023-03-26T07:51:53;99721.66;;;10.21;91.58
43420;BME280;29017;51.514;-0.178;2023-03-26T07:54:22;99729.28;;;10.16;90.79
43420;BME280;29017;51.514;-0.178;2023-03-26T07:56:52;99732.72;;;10.17;91.34
43420;BME280;29017;51.514;-0.178;2023-03-26T08:06:55;99743.88;;;10.19;91.70
43420;BME280;29017;51.514;-0.178;2023-03-26T08:09:53;99744.88;;;10.18;91.32
43420;BME280;29017;51.514;-0.178;2023-03-26T08:17:35;99751.06;;;10.25;91.28
43420;BME280;29017;51.514;-0.178;2023-03-26T08:20:08;99759.56;;;10.27;90.79
43420;BME280;29017;51.514;-0.178;2023-03-26T08:22:40;99772.38;;;10.30;91.17
43420;BME280;29017;51.514;-0.178;2023-03-26T08:30:19;99777.44;;;10.32;90.82
43420;BME280;29017;51.514;-0.178;2023-03-26T08:32:52;99780.72;;;10.34;90.98
43420;BME280;29017;51.514;-0.178;2023-03-26T08:35:23;99786.16;;;10.32;90.52
43420;BME280;29017;51.514;-0.178;2023-03-26T08:37:51;99787.78;;;10.33;91.00
43420;BME280;29017;51.514;-0.178;2023-03-26T09:10:59;99840.28;;;10.64;93.11
43420;BME280;29017;51.514;-0.178;2023-03-26T09:39:33;99875.34;;;10.79;91.48
43420;BME280;29017;51.514;-0.178;2023-03-26T10:03:18;99909.47;;;11.25;91.16
43420;BME280;29017;51.514;-0.178;2023-03-26T10:11:02;99925.47;;;11.38;91.92
43420;BME280;29017;51.514;-0.178;2023-03-26T10:13:37;99933.19;;;11.39;90.91
43420;BME280;29017;51.514;-0.178;2023-03-26T10:16:14;99940.53;;;11.44;90.00
43420;BME280;29017;51.514;-0.178;2023-03-26T10:21:21;99947.84;;;11.56;89.55
43420;BME280;29017;51.514;-0.178;2023-03-26T10:23:59;99954.38;;;11.61;89.21
43420;BME280;29017;51.514;-0.178;2023-03-26T10:31:42;99969.47;;;11.67;88.88
43420;BME280;29017;51.514;-0.178;2023-03-26T10:57:05;100026.91;;;11.71;87.32
43420;BME280;29017;51.514;-0.178;2023-03-26T10:59:35;100033.75;;;11.80;87.57
43420;BME280;29017;51.514;-0.178;2023-03-26T11:04:32;100035.94;;;11.91;87.27
43420;BME280;29017;51.514;-0.178;2023-03-26T11:07:09;100044.31;;;11.95;86.96
43420;BME280;29017;51.514;-0.178;2023-03-26T11:19:56;100067.88;;;12.11;85.68
43420;BME280;29017;51.514;-0.178;2023-03-26T11:29:59;100089.88;;;12.18;82.90
43420;BME280;29017;51.514;-0.178;2023-03-26T11:32:33;100095.16;;;12.04;80.02
43420;BME280;29017;51.514;-0.178;2023-03-26T11:35:05;100107.22;;;11.98;80.69
43420;BME280;29017;51.514;-0.178;2023-03-26T11:37:36;100102.31;;;11.95;80.31
43420;BME280;29017;51.514;-0.178;2023-03-26T11:40:08;100115.69;;;11.93;81.64
43420;BME280;29017;51.514;-0.178;2023-03-26T11:42:37;100117.22;;;11.88;80.81
43420;BME280;29017;51.514;-0.178;2023-03-26T11:45:05;100118.31;;;11.71;79.68
43420;BME280;29017;51.514;-0.178;2023-03-26T11:47:36;100130.66;;;11.70;80.70
43420;BME280;29017;51.514;-0.178;2023-03-26T11:50:08;100134.81;;;11.65;82.53
43420;BME280;29017;51.514;-0.178;2023-03-26T11:52:41;100148.53;;;11.60;82.14
43420;BME280;29017;51.514;-0.178;2023-03-26T11:55:10;100160.06;;;11.59;83.80
43420;BME280;29017;51.514;-0.178;2023-03-26T11:57:39;100158.78;;;11.55;84.25
43420;BME280;29017;51.514;-0.178;2023-03-26T12:00:11;100169.56;;;11.45;85.91
43420;BME280;29017;51.514;-0.178;2023-03-26T12:02:44;100174.81;;;11.45;86.95
43420;BME280;29017;51.514;-0.178;2023-03-26T12:12:44;100200.03;;;11.40;88.21
43420;BME280;29017;51.514;-0.178;2023-03-26T12:15:12;100216.00;;;11.38;90.17
43420;BME280;29017;51.514;-0.178;2023-03-26T12:17:40;100210.78;;;11.30;89.22
43420;BME280;29017;51.514;-0.178;2023-03-26T12:22:46;100235.78;;;11.34;87.65
43420;BME280;29017;51.514;-0.178;2023-03-26T12:25:16;100232.63;;;11.39;86.80
43420;BME280;29017;51.514;-0.178;2023-03-26T12:30:25;100240.38;;;11.40;86.69
43420;BME280;29017;51.514;-0.178;2023-03-26T12:32:55;100257.94;;;11.48;86.77
43420;BME280;29017;51.514;-0.178;2023-03-26T12:35:24;100262.06;;;11.50;86.20
43420;BME280;29017;51.514;-0.178;2023-03-26T12:40:30;100268.09;;;11.59;85.24
43420;BME280;29017;51.514;-0.178;2023-03-26T12:42:59;100280.13;;;11.62;85.55
43420;BME280;29017;51.514;-0.178;2023-03-26T12:45:49;100276.94;;;11.66;84.79
43420;BME280;29017;51.514;-0.178;2023-03-26T12:48:41;100279.03;;;11.79;82.88
43420;BME280;29017;51.514;-0.178;2023-03-26T13:16:08;100366.53;;;11.19;78.02
43420;BME280;29017;51.514;-0.178;2023-03-26T13:21:11;100369.97;;;11.28;77.54
43420;BME280;29017;51.514;-0.178;2023-03-26T13:26:17;100390.03;;;11.29;79.07
43420;BME280;29017;51.514;-0.178;2023-03-26T13:46:19;100432.56;;;11.01;79.16
43420;BME280;29017;51.514;-0.178;2023-03-26T13:48:50;100437.50;;;10.96;78.85
43420;BME280;29017;51.514;-0.178;2023-03-26T13:51:22;100441.09;;;10.95;79.69
43420;BME280;29017;51.514;-0.178;2023-03-26T13:56:24;100446.56;;;11.02;80.22
43420;BME280;29017;51.514;-0.178;2023-03-26T13:58:53;100449.16;;;10.94;78.73
43420;BME280;29017;51.514;-0.178;2023-03-26T14:09:01;100474.84;;;10.92;79.74
43420;BME280;29017;51.514;-0.178;2023-03-26T14:11:31;100480.09;;;11.00;79.74
43420;BME280;29017;51.514;-0.178;2023-03-26T14:14:05;100486.53;;;11.05;79.29
43420;BME280;29017;51.514;-0.178;2023-03-26T14:16:38;100479.44;;;11.14;78.49
43420;BME280;29017;51.514;-0.178;2023-03-26T14:21:40;100483.56;;;11.17;76.43
43420;BME280;29017;51.514;-0.178;2023-03-26T14:24:13;100520.59;;;11.15;75.58
43420;BME280;29017;51.514;-0.178;2023-03-26T14:34:14;100525.53;;;11.02;76.07
43420;BME280;29017;51.514;-0.178;2023-03-26T14:54:16;100569.13;;;11.04;71.73
43420;BME280;29017;51.514;-0.178;2023-03-26T14:56:47;100569.31;;;11.11;73.00
43420;BME280;29017;51.514;-0.178;2023-03-26T15:16:51;100617.69;;;11.18;71.26
43420;BME280;29017;51.514;-0.178;2023-03-26T15:51:52;100694.72;;;11.20;65.13
43420;BME280;29017;51.514;-0.178;2023-03-26T15:59:26;100710.09;;;10.91;66.06
43420;BME280;29017;51.514;-0.178;2023-03-26T16:12:17;100746.31;;;10.97;65.15
43420;BME280;29017;51.514;-0.178;2023-03-26T16:14:45;100761.78;;;11.00;64.12
43420;BME280;29017;51.514;-0.178;2023-03-26T16:24:44;100774.72;;;10.85;63.10
43420;BME280;29017;51.514;-0.178;2023-03-26T16:39:39;100807.19;;;10.50;64.84
43420;BME280;29017;51.514;-0.178;2023-03-26T16:42:19;100815.38;;;10.47;64.34
43420;BME280;29017;51.514;-0.178;2023-03-26T17:12:38;100884.59;;;10.65;63.00
43420;BME280;29017;51.514;-0.178;2023-03-26T17:20:10;100910.53;;;10.60;63.63
43420;BME280;29017;51.514;-0.178;2023-03-26T17:35:14;100950.47;;;10.56;62.09
43420;BME280;29017;51.514;-0.178;2023-03-26T17:37:42;100949.09;;;10.52;62.91
43420;BME280;29017;51.514;-0.178;2023-03-26T17:42:58;100967.56;;;10.42;62.32
43420;BME280;29017;51.514;-0.178;2023-03-26T17:45:27;100970.75;;;10.46;62.72
43420;BME280;29017;51.514;-0.178;2023-03-26T17:47:57;100976.66;;;10.48;62.31
43420;BME280;29017;51.514;-0.178;2023-03-26T17:50:26;100983.91;;;10.46;61.25
43420;BME280;29017;51.514;-0.178;2023-03-26T17:52:56;100985.00;;;10.43;62.30
43420;BME280;29017;51.514;-0.178;2023-03-26T17:55:25;100992.75;;;10.45;62.37
43420;BME280;29017;51.514;-0.178;2023-03-26T17:57:57;101002.97;;;10.48;61.89
43420;BME280;29017;51.514;-0.178;2023-03-26T18:00:27;101012.97;;;10.44;62.05
43420;BME280;29017;51.514;-0.178;2023-03-26T18:02:57;101020.19;;;10.42;61.44
43420;BME280;29017;51.514;-0.178;2023-03-26T18:05:27;101014.69;;;10.36;61.73
43420;BME280;29017;51.514;-0.178;2023-03-26T18:20:28;101058.47;;;10.27;63.09
43420;BME280;29017;51.514;-0.178;2023-03-26T18:22:58;101070.09;;;10.24;64.34
43420;BME280;29017;51.514;-0.178;2023-03-26T18:25:33;101078.66;;;10.26;64.56
43420;BME280;29017;51.514;-0.178;2023-03-26T18:28:01;101078.38;;;10.29;65.49
43420;BME280;29017;51.514;-0.178;2023-03-26T18:30:28;101088.66;;;10.23;64.66
43420;BME280;29017;51.514;-0.178;2023-03-26T18:35:26;101094.88;;;10.22;65.14
43420;BME280;29017;51.514;-0.178;2023-03-26T18:38:01;101093.78;;;10.24;64.86
43420;BME280;29017;51.514;-0.178;2023-03-26T18:42:59;101112.63;;;10.20;64.24
43420;BME280;29017;51.514;-0.178;2023-03-26T18:45:26;101109.28;;;10.18;64.09
43420;BME280;29017;51.514;-0.178;2023-03-26T18:47:55;101118.00;;;10.09;63.46
43420;BME280;29017;51.514;-0.178;2023-03-26T18:52:54;101133.91;;;10.07;64.66
43420;BME280;29017;51.514;-0.178;2023-03-26T18:55:21;101142.50;;;10.09;63.96
43420;BME280;29017;51.514;-0.178;2023-03-26T18:57:55;101139.88;;;10.09;65.33
43420;BME280;29017;51.514;-0.178;2023-03-26T19:00:24;101154.81;;;10.09;64.98
43420;BME280;29017;51.514;-0.178;2023-03-26T19:02:56;101149.00;;;10.15;65.31
43420;BME280;29017;51.514;-0.178;2023-03-26T19:05:25;101155.09;;;10.15;65.11
43420;BME280;29017;51.514;-0.178;2023-03-26T19:07:54;101169.31;;;10.13;64.38
43420;BME280;29017;51.514;-0.178;2023-03-26T19:10:21;101180.56;;;10.05;64.43
43420;BME280;29017;51.514;-0.178;2023-03-26T19:15:20;101172.09;;;10.02;65.83
43420;BME280;29017;51.514;-0.178;2023-03-26T19:17:52;101179.59;;;9.97;64.51
43420;BME280;29017;51.514;-0.178;2023-03-26T19:20:24;101189.97;;;9.98;65.58
43420;BME280;29017;51.514;-0.178;2023-03-26T19:22:52;101182.22;;;9.97;64.73
43420;BME280;29017;51.514;-0.178;2023-03-26T19:25:23;101184.44;;;9.92;63.35
43420;BME280;29017;51.514;-0.178;2023-03-26T19:27:51;101191.06;;;9.86;63.46
43420;BME280;29017;51.514;-0.178;2023-03-26T19:30:21;101184.97;;;9.85;64.12
43420;BME280;29017;51.514;-0.178;2023-03-26T19:32:53;101200.75;;;9.85;64.53
43420;BME280;29017;51.514;-0.178;2023-03-26T19:35:38;101193.03;;;9.84;63.95
43420;BME280;29017;51.514;-0.178;2023-03-26T19:40:36;101204.91;;;9.78;64.86
43420;BME280;29017;51.514;-0.178;2023-03-26T19:43:10;101209.06;;;9.81;64.50
43420;BME280;29017;51.514;-0.178;2023-03-26T19:45:37;101213.47;;;9.80;64.65
43420;BME280;29017;51.514;-0.178;2023-03-26T19:50:51;101226.06;;;9.86;63.60
43420;BME280;29017;51.514;-0.178;2023-03-26T19:58:18;101241.56;;;9.90;62.50
43420;BME280;29017;51.514;-0.178;2023-03-26T20:00:45;101259.81;;;9.91;61.76
43420;BME280;29017;51.514;-0.178;2023-03-26T20:03:13;101254.97;;;9.86;63.06
43420;BME280;29017;51.514;-0.178;2023-03-26T20:05:42;101259.41;;;9.86;61.94
43420;BME280;29017;51.514;-0.178;2023-03-26T20:08:12;101264.81;;;9.84;61.42
43420;BME280;29017;51.514;-0.178;2023-03-26T20:10:41;101263.16;;;9.83;62.71
43420;BME280;29017;51.514;-0.178;2023-03-26T20:13:11;101271.72;;;9.85;62.32
43420;BME280;29017;51.514;-0.178;2023-03-26T20:15:39;101280.28;;;9.87;62.78
43420;BME280;29017;51.514;-0.178;2023-03-26T20:18:06;101271.56;;;9.87;62.51
43420;BME280;29017;51.514;-0.178;2023-03-26T20:20:34;101282.22;;;9.85;62.58
43420;BME280;29017;51.514;-0.178;2023-03-26T20:23:02;101297.88;;;9.87;62.87
43420;BME280;29017;51.514;-0.178;2023-03-26T20:25:31;101297.31;;;9.83;62.55
43420;BME280;29017;51.514;-0.178;2023-03-26T20:27:58;101303.94;;;9.78;62.70
43420;BME280;29017;51.514;-0.178;2023-03-26T20:30:25;101302.81;;;9.71;63.13
43420;BME280;29017;51.514;-0.178;2023-03-26T20:32:57;101309.19;;;9.68;63.46
43420;BME280;29017;51.514;-0.178;2023-03-26T20:35:38;101319.69;;;9.68;63.33
43420;BME280;29017;51.514;-0.178;2023-03-26T20:38:06;101310.13;;;9.67;64.00
43420;BME280;29017;51.514;-0.178;2023-03-26T20:40:35;101321.34;;;9.69;64.05
43420;BME280;29017;51.514;-0.178;2023-03-26T20:43:04;101323.97;;;9.69;65.49